Thursday, November 23, 2017, 7:12 AM GMT
Back to Local

CWRK, Bancroft Automatic Weather Reporting System

Location: , , Canada Lat: 45.067
Local Time: 7:12 AM GMT ( 7:12 GMT) Lon: -77.867
Time Zone: GMT Elev: 1085 ft

Show me the last for .
Show Decoded

2017-11-23 06:00 METAR CWRK 230600Z AUTO 30002KT M11/M13 RMK AO1 SOG 01 8018 SLP206 T11121127 =
2017-11-23 05:00 METAR CWRK 230500Z AUTO 00000KT M11/M13 RMK AO1 SOG 01 5003 SLP221 T11051131 =
2017-11-23 04:00 METAR CWRK 230400Z AUTO 00000KT M11/M12 RMK AO1 SOG 01 8007 SLP219 T11081124 =
2017-11-23 03:00 METAR CWRK 230300Z AUTO 00000KT M10/M12 RMK AO1 SOG 01 5002 SLP224 T10981122 =
2017-11-23 02:00 METAR CWRK 230200Z AUTO 32004KT M08/M12 RMK AO1 SOG 01 8005 SLP222 T10761119 =
2017-11-23 01:00 METAR CWRK 230100Z AUTO 35004KT M07/M12 RMK AO1 SOG 01 1006 SLP224 T10711119 =
2017-11-23 00:00 METAR CWRK 230000Z AUTO 32003KT M07/M11 RMK AO1 SOG 01 0008 SLP223 T10661111 =
2017-11-22 23:00 METAR CWRK 222300Z AUTO 34005KT M07/M12 RMK AO1 SOG 01 2018 SLP225 T10671118 =
2017-11-22 22:00 METAR CWRK 222200Z AUTO 31005KT M06/M12 RMK AO1 SOG 01 1020 SLP216 T10631115 =
2017-11-22 21:00 METAR CWRK 222100Z AUTO 33005KT M06/M11 RMK AO1 SOG 01 3015 SLP214 T10561110 =
2017-11-22 20:00 METAR CWRK 222000Z AUTO 33006KT M05/M10 RMK AO1 SOG 01 3008 SLP205 T10491103 =
2017-11-22 19:00 METAR CWRK 221900Z AUTO 30005KT M05/M10 RMK AO1 SOG 01 8004 SLP194 T10521101 =
2017-11-22 18:00 METAR CWRK 221800Z AUTO 28005KT M05/M10 RMK AO1 SOG 00 1002 SLP197 T10481095 =
2017-11-22 17:00 METAR CWRK 221700Z AUTO 33006KT M05/M09 RMK AO1 SOG 00 0006 SLP196 T10461086 =
2017-11-22 16:00 METAR CWRK 221600Z AUTO 36007KT M05/M09 RMK AO1 SOG 01 1021 SLP198 T10471088 =
2017-11-22 15:00 METAR CWRK 221500Z AUTO 35006KT M04/M08 RMK AO1 SOG 01 1027 SLP194 T10431080 =
2017-11-22 14:00 METAR CWRK 221400Z AUTO 33008KT M04/M07 RMK AO1 SOG 01 1041 SLP189 T10381072 =
2017-11-22 13:00 METAR CWRK 221300Z AUTO 33006KT M03/M06 RMK AO1 SOG 01 1039 SLP174 T10291059 =
2017-11-22 12:00 METAR CWRK 221200Z AUTO 31007KT M02/M06 RMK AO1 4PAST HR SOG 01 3035 SLP165
                 P0002 T10221056 50004 =
2017-11-22 11:00 METAR CWRK 221100Z AUTO 31002KT M00/M03 RMK AO1 SOG 01 3015 SLP143 T10041032 =
2017-11-22 10:00 METAR CWRK 221000Z AUTO 30004KT M00/M04 RMK AO1 SOG 01 1010 SLP131 T10011037 =
2017-11-22 09:00 METAR CWRK 220900Z AUTO 27001KT 00/M03 RMK AO1 SOG 01 0011 SLP126 T00001028 =
2017-11-22 08:00 METAR CWRK 220800Z AUTO 25002KT M00/M02 RMK AO1 SOG 00 2018 SLP127 T10021024 =

Support USWX by starting your Amazon purchase here.